| time (UTC) | temp C | wind direction | speed KPH | gust KPH | rain 1hr cm | rain 24hr cm | rain mn cm | humidity % | barometer mb |
| 20260505235034 | 11 | 15 | 1.6 | 1.6 | 0.00 | 0.13 | 0.13 | 57 | 1009.5 |
| 20260505234531 | 11 | 0 | 0.0 | 0.0 | 0.00 | 0.13 | 0.13 | 56 | 1009.5 |
| 20260505234027 | 11 | 0 | 0.0 | 0.0 | 0.00 | 0.13 | 0.13 | 58 | 1009.3 |
| 20260505233525 | 11 | 0 | 0.0 | 0.0 | 0.00 | 0.13 | 0.13 | 57 | 1009.3 |
| 20260505233022 | 11 | 0 | 0.0 | 0.0 | 0.00 | 0.13 | 0.13 | 53 | 1009.5 |
| 20260505232520 | 11 | 0 | 0.0 | 0.0 | 0.00 | 0.13 | 0.13 | 54 | 1009.6 |
| 20260505232017 | 11 | 0 | 0.0 | 0.0 | 0.00 | 0.13 | 0.13 | 59 | 1009.7 |
| 20260505231514 | 11 | 0 | 0.0 | 1.6 | 0.00 | 0.13 | 0.13 | 51 | 1009.6 |
| 20260505231013 | 11 | 0 | 0.0 | 1.6 | 0.00 | 0.13 | 0.13 | 52 | 1009.8 |
| 20260505230510 | 11 | 337 | 0.0 | 0.0 | 0.00 | 0.13 | 0.13 | 54 | 1009.5 |
| 20260505230006 | 11 | 286 | 0.0 | 1.6 | 0.00 | 0.13 | 0.13 | 54 | 1009.8 |
| 20260505225503 | 11 | 270 | 0.0 | 3.2 | 0.00 | 0.13 | 0.13 | 51 | 1009.7 |
| 20260505224959 | 11 | 331 | 0.0 | 3.2 | 0.00 | 0.13 | 0.13 | 49 | 1010.0 |
| 20260505224456 | 11 | 60 | 1.6 | 9.7 | 0.00 | 0.13 | 0.13 | 54 | 1009.7 |
| 20260505223953 | 11 | 319 | 3.2 | 6.4 | 0.00 | 0.13 | 0.13 | 54 | 1009.8 |
| 20260505223450 | 11 | 40 | 4.8 | 4.8 | 0.00 | 0.13 | 0.13 | 51 | 1009.9 |
| 20260505222947 | 11 | 332 | 3.2 | 8.0 | 0.00 | 0.13 | 0.13 | 51 | 1009.8 |
| 20260505222443 | 11 | 233 | 3.2 | 8.0 | 0.00 | 0.13 | 0.13 | 50 | 1010.0 |
| 20260505221939 | 11 | 260 | 9.7 | 11.3 | 0.00 | 0.13 | 0.13 | 52 | 1009.7 |
| 20260505221436 | 11 | 217 | 3.2 | 11.3 | 0.00 | 0.13 | 0.13 | 50 | 1009.6 |
| 20260505220933 | 11 | 261 | 0.0 | 4.8 | 0.00 | 0.13 | 0.13 | 62 | 1009.4 |
| 20260505220430 | 12 | 294 | 0.0 | 1.6 | 0.00 | 0.13 | 0.13 | 63 | 1009.6 |
| 20260505215928 | 12 | 265 | 4.8 | 4.8 | 0.00 | 0.13 | 0.13 | 61 | 1009.6 |
| 20260505215426 | 11 | 81 | 0.0 | 8.0 | 0.00 | 0.13 | 0.13 | 56 | 1009.7 |
| 20260505214923 | 11 | 337 | 3.2 | 6.4 | 0.00 | 0.13 | 0.13 | 60 | 1009.6 |
| 20260505214421 | 11 | 324 | 3.2 | 11.3 | 0.00 | 0.13 | 0.13 | 57 | 1009.5 |
| 20260505213918 | 12 | 286 | 0.0 | 3.2 | 0.00 | 0.13 | 0.13 | 59 | 1009.6 |
| 20260505213416 | 11 | 28 | 3.2 | 6.4 | 0.00 | 0.13 | 0.13 | 56 | 1009.6 |
| 20260505212912 | 12 | 331 | 3.2 | 8.0 | 0.00 | 0.13 | 0.13 | 59 | 1009.9 |
| 20260505212408 | 12 | 340 | 0.0 | 4.8 | 0.00 | 0.13 | 0.13 | 64 | 1009.7 |
| 20260505211905 | 12 | 283 | 3.2 | 4.8 | 0.00 | 0.13 | 0.13 | 55 | 1009.8 |
| 20260505211403 | 12 | 334 | 6.4 | 6.4 | 0.00 | 0.13 | 0.13 | 56 | 1009.5 |
| 20260505210859 | 12 | 0 | 0.0 | 6.4 | 0.00 | 0.13 | 0.13 | 60 | 1009.7 |
| 20260505210356 | 12 | 270 | 0.0 | 3.2 | 0.00 | 0.13 | 0.13 | 60 | 1010.2 |
| 20260505205853 | 12 | 242 | 8.0 | 8.0 | 0.00 | 0.13 | 0.13 | 55 | 1010.1 |
| 20260505205351 | 12 | 265 | 3.2 | 4.8 | 0.00 | 0.13 | 0.13 | 56 | 1010.2 |
| 20260505204848 | 12 | 308 | 3.2 | 3.2 | 0.00 | 0.13 | 0.13 | 63 | 1010.1 |
| 20260505204345 | 11 | 278 | 1.6 | 1.6 | 0.00 | 0.13 | 0.13 | 59 | 1010.5 |
| 20260505203842 | 11 | 0 | 0.0 | 4.8 | 0.00 | 0.13 | 0.13 | 63 | 1010.7 |
| 20260505203338 | 11 | 300 | 0.0 | 3.2 | 0.00 | 0.13 | 0.13 | 60 | 1010.5 |
| 20260505202835 | 11 | 345 | 1.6 | 3.2 | 0.00 | 0.13 | 0.13 | 60 | 1010.4 |
| 20260505202331 | 11 | 346 | 4.8 | 4.8 | 0.00 | 0.13 | 0.13 | 59 | 1010.4 |
| 20260505201828 | 11 | 303 | 0.0 | 3.2 | 0.00 | 0.13 | 0.13 | 60 | 1010.5 |
| 20260505201326 | 11 | 70 | 0.0 | 4.8 | 0.00 | 0.13 | 0.13 | 58 | 1010.9 |
| 20260505200824 | 11 | 270 | 0.0 | 3.2 | 0.00 | 0.13 | 0.13 | 61 | 1011.3 |
| 20260505200320 | 11 | 320 | 0.0 | 4.8 | 0.00 | 0.13 | 0.13 | 59 | 1011.0 |
| 20260505195816 | 11 | 283 | 0.0 | 1.6 | 0.00 | 0.13 | 0.13 | 66 | 1011.1 |
| 20260505195313 | 11 | 288 | 0.0 | 4.8 | 0.00 | 0.13 | 0.13 | 57 | 1010.9 |
| 20260505194810 | 11 | 303 | 4.8 | 8.0 | 0.00 | 0.13 | 0.13 | 55 | 1011.1 |
| 20260505194308 | 11 | 345 | 3.2 | 4.8 | 0.00 | 0.13 | 0.13 | 61 | 1011.2 |
| 20260505193803 | 11 | 345 | 0.0 | 4.8 | 0.00 | 0.13 | 0.13 | 59 | 1011.3 |
| 20260505193301 | 11 | 282 | 1.6 | 4.8 | 0.00 | 0.13 | 0.13 | 58 | 1011.4 |
| 20260505192759 | 11 | 90 | 0.0 | 1.6 | 0.00 | 0.13 | 0.13 | 59 | 1011.5 |
| 20260505192256 | 11 | 278 | 0.0 | 1.6 | 0.00 | 0.13 | 0.13 | 60 | 1011.3 |
| 20260505191754 | 11 | 90 | 0.0 | 0.0 | 0.00 | 0.13 | 0.13 | 59 | 1011.2 |
| 20260505191252 | 11 | 90 | 0.0 | 0.0 | 0.00 | 0.13 | 0.13 | 60 | 1011.2 |
| 20260505190748 | 11 | 200 | 0.0 | 0.0 | 0.00 | 0.13 | 0.13 | 63 | 1011.4 |
| 20260505190243 | 11 | 352 | 0.0 | 0.0 | 0.00 | 0.13 | 0.13 | 66 | 1011.5 |
| 20260505185740 | 11 | 352 | 0.0 | 0.0 | 0.05 | 0.13 | 0.13 | 67 | 1011.3 |
| 20260505185237 | 11 | 337 | 0.0 | 1.6 | 0.05 | 0.13 | 0.13 | 67 | 1011.3 |
| 20260505184732 | 11 | 340 | 1.6 | 1.6 | 0.00 | 0.13 | 0.13 | 67 | 1011.4 |
| 20260505184230 | 11 | 202 | 3.2 | 3.2 | 0.00 | 0.13 | 0.13 | 57 | 1011.4 |
| 20260505183727 | 11 | 297 | 0.0 | 6.4 | 0.00 | 0.13 | 0.13 | 56 | 1011.2 |
| 20260505183224 | 11 | 290 | 3.2 | 8.0 | 0.00 | 0.13 | 0.13 | 53 | 1011.3 |
| 20260505182720 | 11 | 71 | 0.0 | 6.4 | 0.00 | 0.13 | 0.13 | 55 | 1011.3 |
| 20260505182218 | 11 | 237 | 0.0 | 8.0 | 0.00 | 0.13 | 0.13 | 54 | 1011.3 |
| 20260505181714 | 11 | 270 | 0.0 | 8.0 | 0.00 | 0.13 | 0.13 | 54 | 1011.2 |
| 20260505181212 | 11 | 180 | 3.2 | 6.4 | 0.00 | 0.13 | 0.13 | 56 | 1011.5 |
| 20260505180708 | 11 | 300 | 0.0 | 4.8 | 0.00 | 0.13 | 0.13 | 61 | 1011.4 |
| 20260505180204 | 11 | 330 | 9.7 | 14.5 | 0.00 | 0.13 | 0.13 | 51 | 1011.2 |
| 20260505175700 | 11 | 261 | 0.0 | 6.4 | 0.00 | 0.13 | 0.13 | 52 | 1011.4 |
| 20260505175157 | 11 | 251 | 0.0 | 8.0 | 0.00 | 0.13 | 0.13 | 56 | 1011.5 |
| 20260505174654 | 11 | 297 | 4.8 | 6.4 | 0.00 | 0.13 | 0.13 | 60 | 1011.3 |
| 20260505174150 | 11 | 205 | 6.4 | 16.1 | 0.00 | 0.13 | 0.13 | 55 | 1011.6 |
| 20260505173647 | 12 | 270 | 3.2 | 8.0 | 0.00 | 0.13 | 0.13 | 62 | 1011.3 |
| 20260505173144 | 12 | 239 | 3.2 | 3.2 | 0.00 | 0.13 | 0.13 | 62 | 1011.3 |
| 20260505172641 | 12 | 261 | 0.0 | 4.8 | 0.00 | 0.13 | 0.13 | 61 | 1010.9 |
| 20260505172138 | 12 | 294 | 1.6 | 4.8 | 0.00 | 0.13 | 0.13 | 64 | 1011.0 |
| 20260505171637 | 12 | 246 | 0.0 | 6.4 | 0.00 | 0.13 | 0.13 | 64 | 1011.1 |
| 20260505171135 | 12 | 248 | 0.0 | 4.8 | 0.00 | 0.13 | 0.13 | 62 | 1011.0 |
| 20260505170632 | 12 | 286 | 0.0 | 3.2 | 0.00 | 0.13 | 0.13 | 63 | 1011.3 |
| 20260505170128 | 12 | 243 | 3.2 | 4.8 | 0.00 | 0.13 | 0.13 | 60 | 1011.3 |
| 20260505165623 | 12 | 303 | 4.8 | 6.4 | 0.00 | 0.13 | 0.13 | 63 | 1010.9 |
| 20260505165120 | 12 | 334 | 6.4 | 6.4 | 0.00 | 0.13 | 0.13 | 64 | 1010.9 |
| 20260505164615 | 12 | 0 | 0.0 | 8.0 | 0.00 | 0.13 | 0.13 | 61 | 1010.9 |
| 20260505164113 | 12 | 200 | 1.6 | 4.8 | 0.00 | 0.13 | 0.13 | 61 | 1010.5 |
| 20260505163611 | 12 | 258 | 0.0 | 8.0 | 0.00 | 0.13 | 0.13 | 64 | 1010.7 |
| 20260505163109 | 11 | 286 | 1.6 | 8.0 | 0.00 | 0.13 | 0.13 | 62 | 1010.8 |
| 20260505162606 | 11 | 16 | 4.8 | 4.8 | 0.00 | 0.13 | 0.13 | 66 | 1010.5 |
| 20260505162104 | 11 | 278 | 1.6 | 4.8 | 0.00 | 0.13 | 0.13 | 66 | 1010.7 |
| 20260505161600 | 11 | 319 | 3.2 | 4.8 | 0.00 | 0.13 | 0.13 | 70 | 1010.9 |
| 20260505161058 | 11 | 0 | 0.0 | 4.8 | 0.00 | 0.13 | 0.13 | 68 | 1010.7 |
| 20260505160555 | 11 | 283 | 0.0 | 9.7 | 0.00 | 0.13 | 0.13 | 70 | 1010.7 |
| 20260505153032 | 10 | 188 | 3.2 | 4.8 | 0.00 | 0.13 | 0.13 | 71 | 1009.8 |
| 20260505152529 | 10 | 349 | 3.2 | 6.4 | 0.00 | 0.13 | 0.13 | 73 | 1010.0 |
| 20260505152025 | 10 | 239 | 3.2 | 6.4 | 0.00 | 0.13 | 0.13 | 75 | 1010.1 |
| 20260505151520 | 10 | 342 | 0.0 | 8.0 | 0.00 | 0.13 | 0.13 | 74 | 1010.1 |
| 20260505151017 | 10 | 336 | 3.2 | 6.4 | 0.00 | 0.13 | 0.13 | 72 | 1009.9 |
| 20260505150514 | 10 | 270 | 1.6 | 11.3 | 0.00 | 0.13 | 0.13 | 75 | 1009.8 |
| 20260505140439 | 8 | 323 | 0.0 | 3.2 | 0.00 | 0.13 | 0.13 | 84 | 1009.1 |
| 20260505124852 | 7 | 312 | 0.0 | 4.8 | 0.05 | 0.08 | 0.08 | 80 | 1009.8 |
| 20260505124349 | 7 | 342 | 3.2 | 11.3 | 0.13 | 0.08 | 0.08 | 79 | 1010.2 |
| 20260505123845 | 7 | 236 | 0.0 | 9.7 | 0.18 | 0.05 | 0.05 | 79 | 1010.2 |
| 20260505123342 | 7 | 264 | 3.2 | 11.3 | 0.13 | 0.05 | 0.05 | 77 | 1010.3 |
| 20260505122838 | 8 | 245 | 3.2 | 6.4 | 0.05 | 0.03 | 0.03 | 75 | 1010.7 |
| 20260505122336 | 8 | 288 | 4.8 | 12.9 | 0.05 | 0.03 | 0.03 | 73 | 1010.4 |
| 20260505121832 | 8 | 228 | 0.0 | 8.0 | 0.05 | 0.03 | 0.03 | 73 | 1010.5 |
| 20260505121329 | 8 | 251 | 6.4 | 14.5 | 0.05 | 0.03 | 0.03 | 72 | 1010.4 |
| 20260505120825 | 8 | 213 | 3.2 | 12.9 | 0.05 | 0.00 | 0.00 | 74 | 1010.4 |
| 20260505120321 | 8 | 236 | 8.0 | 11.3 | 0.05 | 0.00 | 0.00 | 73 | 1010.5 |
| 20260505115820 | 8 | 257 | 8.0 | 24.1 | 0.00 | 0.00 | 0.00 | 70 | 1010.8 |
| 20260505115317 | 9 | 265 | 6.4 | 16.1 | 0.00 | 0.00 | 0.00 | 66 | 1010.7 |
| 20260505114815 | 10 | 117 | 0.0 | 9.7 | 0.00 | 0.00 | 0.00 | 62 | 1010.4 |
| 20260505114311 | 10 | 63 | 0.0 | 12.9 | 0.00 | 0.00 | 0.00 | 60 | 1010.3 |
| 20260505113808 | 10 | 278 | 3.2 | 14.5 | 0.00 | 0.00 | 0.00 | 58 | 1009.7 |
| 20260505113304 | 10 | 219 | 6.4 | 14.5 | 0.00 | 0.00 | 0.00 | 56 | 1009.1 |
| 20260505112800 | 10 | 298 | 6.4 | 14.5 | 0.00 | 0.00 | 0.00 | 56 | 1008.7 |
| 20260505112258 | 10 | 45 | 3.2 | 12.9 | 0.00 | 0.00 | 0.00 | 56 | 1008.5 |
| 20260505111758 | 10 | 270 | 3.2 | 11.3 | 0.00 | 0.00 | 0.00 | 61 | 1008.4 |
| 20260505111254 | 10 | 282 | 4.8 | 9.7 | 0.00 | 0.00 | 0.00 | 60 | 1008.7 |
| 20260505110750 | 10 | 328 | 1.6 | 11.3 | 0.00 | 0.00 | 0.00 | 57 | 1008.2 |
| 20260505110248 | 11 | 247 | 4.8 | 8.0 | 0.00 | 0.00 | 0.00 | 57 | 1008.2 |
| 20260505101722 | 11 | 270 | 4.8 | 14.5 | 0.00 | 0.00 | 0.00 | 56 | 1008.4 |
| 20260505101218 | 11 | 249 | 4.8 | 12.9 | 0.00 | 0.00 | 0.00 | 55 | 1008.0 |
| 20260505100715 | 11 | 284 | 4.8 | 8.0 | 0.00 | 0.00 | 0.00 | 54 | 1008.0 |
| 20260505100212 | 12 | 294 | 3.2 | 9.7 | 0.00 | 0.00 | 0.00 | 54 | 1008.2 |
| 20260505095707 | 12 | 278 | 8.0 | 12.9 | 0.00 | 0.00 | 0.00 | 52 | 1008.2 |
| 20260505095205 | 12 | 239 | 12.9 | 20.9 | 0.00 | 0.00 | 0.00 | 53 | 1007.9 |
| 20260505094700 | 12 | 233 | 3.2 | 6.4 | 0.00 | 0.00 | 0.00 | 55 | 1008.1 |
| 20260505094157 | 12 | 262 | 0.0 | 8.0 | 0.00 | 0.00 | 0.00 | 54 | 1007.8 |
| 20260505093653 | 12 | 85 | 3.2 | 9.7 | 0.00 | 0.00 | 0.00 | 53 | 1007.5 |
| 20260505093151 | 12 | 0 | 1.6 | 9.7 | 0.00 | 0.00 | 0.00 | 55 | 1007.5 |
| 20260505092647 | 12 | 266 | 0.0 | 4.8 | 0.00 | 0.00 | 0.00 | 56 | 1007.5 |
| 20260505092147 | 12 | 355 | 0.0 | 4.8 | 0.00 | 0.00 | 0.00 | 55 | 1007.6 |
| 20260505091643 | 12 | 285 | 1.6 | 8.0 | 0.00 | 0.00 | 0.00 | 56 | 1007.6 |
| 20260505091141 | 12 | 308 | 0.0 | 11.3 | 0.00 | 0.00 | 0.00 | 57 | 1007.8 |
| 20260505090638 | 12 | 114 | 1.6 | 6.4 | 0.00 | 0.00 | 0.00 | 55 | 1007.3 |
| 20260505090137 | 12 | 246 | 3.2 | 3.2 | 0.00 | 0.00 | 0.00 | 56 | 1007.6 |
| 20260505085633 | 12 | 81 | 0.0 | 6.4 | 0.00 | 0.00 | 0.00 | 54 | 1007.7 |
| 20260505085132 | 12 | 10 | 0.0 | 3.2 | 0.00 | 0.00 | 0.00 | 56 | 1007.8 |
| 20260505084629 | 12 | 262 | 0.0 | 6.4 | 0.00 | 0.00 | 0.00 | 53 | 1007.7 |
| 20260505084128 | 12 | 248 | 0.0 | 4.8 | 0.00 | 0.00 | 0.00 | 54 | 1007.6 |
| 20260505083625 | 12 | 311 | 3.2 | 8.0 | 0.00 | 0.00 | 0.00 | 55 | 1007.4 |
| 20260505083121 | 12 | 135 | 0.0 | 8.0 | 0.00 | 0.00 | 0.00 | 52 | 1007.2 |
| 20260505082617 | 13 | 234 | 0.0 | 9.7 | 0.00 | 0.00 | 0.00 | 52 | 1007.1 |
| 20260505082114 | 12 | 222 | 4.8 | 9.7 | 0.00 | 0.00 | 0.00 | 54 | 1006.8 |
| 20260505081610 | 13 | 203 | 0.0 | 9.7 | 0.00 | 0.00 | 0.00 | 54 | 1006.7 |
| 20260505081108 | 13 | 225 | 4.8 | 11.3 | 0.00 | 0.00 | 0.00 | 54 | 1007.0 |
| 20260505080603 | 12 | 290 | 6.4 | 8.0 | 0.00 | 0.00 | 0.00 | 56 | 1006.9 |
| 20260505080100 | 12 | 320 | 0.0 | 4.8 | 0.00 | 0.00 | 0.00 | 57 | 1006.8 |
| 20260505075556 | 13 | 257 | 6.4 | 6.4 | 0.00 | 0.00 | 0.00 | 55 | 1006.6 |
| 20260505075053 | 12 | 270 | 1.6 | 3.2 | 0.00 | 0.00 | 0.00 | 59 | 1006.5 |
| 20260505074550 | 13 | 276 | 0.0 | 4.8 | 0.00 | 0.00 | 0.00 | 58 | 1006.3 |
| 20260505074047 | 13 | 287 | 0.0 | 3.2 | 0.00 | 0.00 | 0.00 | 59 | 1005.9 |
| 20260505073544 | 13 | 225 | 3.2 | 3.2 | 0.00 | 0.00 | 0.00 | 57 | 1006.0 |
| 20260505073043 | 13 | 253 | 0.0 | 3.2 | 0.00 | 0.00 | 0.00 | 54 | 1005.8 |
| 20260505072538 | 13 | 280 | 3.2 | 4.8 | 0.00 | 0.00 | 0.00 | 54 | 1005.6 |
| 20260505072035 | 13 | 188 | 0.0 | 6.4 | 0.00 | 0.00 | 0.00 | 51 | 1005.5 |
| 20260505071530 | 13 | 222 | 4.8 | 6.4 | 0.00 | 0.00 | 0.00 | 54 | 1005.4 |
| 20260505071029 | 13 | 165 | 1.6 | 4.8 | 0.00 | 0.00 | 0.00 | 57 | 1005.4 |
| 20260505070526 | 13 | 128 | 3.2 | 8.0 | 0.00 | 0.00 | 0.00 | 60 | 1005.5 |
| 20260505070022 | 13 | 206 | 1.6 | 8.0 | 0.00 | 0.00 | 0.00 | 61 | 1005.4 |
| 20260505065518 | 13 | 165 | 1.6 | 4.8 | 0.00 | 0.00 | 0.00 | 64 | 1005.4 |
| 20260505065015 | 13 | 203 | 3.2 | 6.4 | 0.00 | 0.00 | 0.00 | 64 | 1005.3 |
| 20260505064512 | 13 | 211 | 4.8 | 9.7 | 0.00 | 0.00 | 0.00 | 68 | 1005.2 |
| 20260505064010 | 13 | 254 | 1.6 | 4.8 | 0.00 | 0.00 | 0.00 | 66 | 1005.2 |
| 20260505063507 | 13 | 225 | 4.8 | 6.4 | 0.00 | 0.00 | 0.00 | 73 | 1005.1 |
| 20260505063002 | 13 | 169 | 1.6 | 4.8 | 0.00 | 0.00 | 0.00 | 72 | 1005.0 |
| 20260505062459 | 13 | 203 | 0.0 | 3.2 | 0.00 | 0.00 | 0.00 | 71 | 1005.0 |
| 20260505061956 | 13 | 229 | 0.0 | 3.2 | 0.00 | 0.00 | 0.00 | 73 | 1004.7 |
| 20260505061454 | 13 | 253 | 0.0 | 3.2 | 0.00 | 0.00 | 0.00 | 71 | 1004.7 |
| 20260505060951 | 13 | 180 | 0.0 | 4.8 | 0.00 | 0.00 | 0.00 | 69 | 1004.7 |
| 20260505060449 | 13 | 126 | 1.6 | 4.8 | 0.00 | 0.00 | 0.00 | 71 | 1004.3 |
| 20260505055945 | 13 | 203 | 1.6 | 6.4 | 0.00 | 0.00 | 0.00 | 71 | 1004.4 |
| 20260505055441 | 13 | 111 | 0.0 | 3.2 | 0.00 | 0.00 | 0.00 | 71 | 1004.2 |
| 20260505054938 | 14 | 114 | 1.6 | 3.2 | 0.00 | 0.00 | 0.00 | 74 | 1004.1 |
| 20260505054435 | 14 | 180 | 1.6 | 3.2 | 0.00 | 0.00 | 0.00 | 73 | 1004.0 |
| 20260505053933 | 14 | 143 | 3.2 | 4.8 | 0.00 | 0.00 | 0.00 | 73 | 1003.9 |
| 20260505053430 | 14 | 249 | 1.6 | 6.4 | 0.00 | 0.00 | 0.00 | 75 | 1003.6 |
| 20260505052927 | 14 | 221 | 3.2 | 3.2 | 0.00 | 0.00 | 0.00 | 77 | 1003.5 |
| 20260505052423 | 14 | 171 | 0.0 | 3.2 | 0.00 | 0.00 | 0.00 | 80 | 1004.0 |
| 20260505051921 | 14 | 188 | 0.0 | 3.2 | 0.00 | 0.00 | 0.00 | 80 | 1003.9 |
| 20260505051418 | 15 | 353 | 0.0 | 4.8 | 0.00 | 0.00 | 0.00 | 78 | 1003.6 |
| 20260505050916 | 15 | 212 | 0.0 | 3.2 | 0.00 | 0.00 | 0.00 | 77 | 1003.8 |
| 20260505050414 | 15 | 29 | 0.0 | 3.2 | 0.00 | 0.00 | 0.00 | 77 | 1003.3 |
| 20260505041341 | 15 | 353 | 0.0 | 3.2 | 0.00 | 0.15 | 0.15 | 86 | 1002.7 |
| 20260505040838 | 15 | 345 | 1.6 | 6.4 | 0.00 | 0.15 | 0.15 | 86 | 1002.9 |
| 20260505040336 | 15 | 11 | 1.6 | 3.2 | 0.00 | 0.15 | 0.15 | 90 | 1002.8 |
| 20260505035833 | 15 | 166 | 0.0 | 3.2 | 0.00 | 0.15 | 0.15 | 90 | 1002.7 |
| 20260505035328 | 15 | 289 | 1.6 | 4.8 | 0.00 | 0.15 | 0.15 | 89 | 1002.4 |
| 20260505034826 | 15 | 165 | 0.0 | 1.6 | 0.00 | 0.15 | 0.15 | 88 | 1001.7 |
| 20260505034322 | 15 | 0 | 0.0 | 4.8 | 0.00 | 0.15 | 0.15 | 87 | 1001.6 |
| 20260505033820 | 15 | 110 | 0.0 | 3.2 | 0.00 | 0.15 | 0.15 | 85 | 1001.3 |
| 20260505033316 | 15 | 0 | 1.6 | 4.8 | 0.00 | 0.15 | 0.15 | 81 | 1001.1 |
| 20260505032815 | 16 | 55 | 3.2 | 3.2 | 0.13 | 0.15 | 0.15 | 81 | 1001.5 |
| 20260505032310 | 16 | 165 | 0.0 | 4.8 | 0.36 | 0.15 | 0.15 | 80 | 1001.5 |
| 20260505031808 | 15 | 257 | 0.0 | 11.3 | 0.43 | 0.13 | 0.13 | 81 | 1001.8 |
| 20260505031304 | 15 | 300 | 0.0 | 4.8 | 0.05 | 0.05 | 0.05 | 81 | 1001.5 |
| 20260505030802 | 16 | 96 | 0.0 | 8.0 | 0.05 | 0.05 | 0.05 | 80 | 1002.1 |
| 20260505030258 | 16 | 66 | 1.6 | 6.4 | 0.18 | 0.05 | 0.05 | 78 | 1002.5 |
| 20260505025753 | 16 | 8 | 0.0 | 3.2 | 0.18 | 0.05 | 0.05 | 77 | 1002.3 |
| 20260505025251 | 16 | 8 | 0.0 | 8.0 | 0.13 | 0.03 | 0.03 | 75 | 1002.2 |
| 20260505024749 | 17 | 332 | 6.4 | 9.7 | 0.05 | 0.00 | 0.00 | 70 | 1002.4 |
| 20260505024246 | 17 | 14 | 0.0 | 11.3 | 0.00 | 0.00 | 0.00 | 65 | 1002.8 |
| 20260505023743 | 18 | 259 | 4.8 | 11.3 | 0.00 | 0.00 | 0.00 | 61 | 1002.6 |
| 20260505023240 | 18 | 304 | 3.2 | 8.0 | 0.00 | 0.00 | 0.00 | 58 | 1002.5 |
| 20260505022738 | 18 | 270 | 0.0 | 4.8 | 0.00 | 0.00 | 0.00 | 56 | 1002.6 |
| 20260505022235 | 19 | 209 | 1.6 | 8.0 | 0.00 | 0.00 | 0.00 | 53 | 1002.4 |
| 20260505021731 | 20 | 275 | 9.7 | 17.7 | 0.00 | 0.00 | 0.00 | 51 | 1002.4 |
| 20260505021228 | 20 | 315 | 4.8 | 11.3 | 0.00 | 0.00 | 0.00 | 49 | 1002.0 |
| 20260505020724 | 20 | 270 | 3.2 | 16.1 | 0.00 | 0.00 | 0.00 | 50 | 1002.3 |
| 20260505020219 | 20 | 68 | 4.8 | 12.9 | 0.00 | 0.00 | 0.00 | 48 | 1002.0 |
| 20260505015717 | 21 | 349 | 14.5 | 20.9 | 0.00 | 0.00 | 0.00 | 49 | 1001.8 |
| 20260505015214 | 21 | 326 | 6.4 | 12.9 | 0.00 | 0.00 | 0.00 | 52 | 1001.8 |
| 20260505014711 | 21 | 248 | 4.8 | 9.7 | 0.00 | 0.00 | 0.00 | 61 | 1001.8 |
| 20260505014208 | 21 | 286 | 0.0 | 1.6 | 0.00 | 0.00 | 0.00 | 65 | 1001.2 |
| 20260505013705 | 21 | 270 | 0.0 | 3.2 | 0.00 | 0.00 | 0.00 | 64 | 1000.9 |
| 20260505013202 | 21 | 270 | 0.0 | 3.2 | 0.00 | 0.00 | 0.00 | 65 | 1000.8 |
| 20260505012700 | 21 | 165 | 0.0 | 0.0 | 0.00 | 0.00 | 0.00 | 64 | 1001.0 |
| 20260505012157 | 21 | 157 | 3.2 | 4.8 | 0.00 | 0.00 | 0.00 | 64 | 1000.7 |
| 20260505011653 | 21 | 320 | 3.2 | 4.8 | 0.00 | 0.00 | 0.00 | 63 | 1000.7 |
| 20260505011150 | 21 | 155 | 4.8 | 4.8 | 0.00 | 0.00 | 0.00 | 62 | 1000.3 |
| 20260505010645 | 21 | 306 | 0.0 | 4.8 | 0.00 | 0.00 | 0.00 | 62 | 1000.2 |
| 20260505010142 | 21 | 180 | 0.0 | 4.8 | 0.00 | 0.00 | 0.00 | 61 | 1000.4 |
| 20260505005638 | 22 | 276 | 3.2 | 6.4 | 0.00 | 0.00 | 0.00 | 61 | 1000.2 |
| 20260505005136 | 22 | 149 | 4.8 | 11.3 | 0.00 | 0.00 | 0.00 | 59 | 1000.0 |
| 20260505004632 | 22 | 246 | 0.0 | 4.8 | 0.00 | 0.00 | 0.00 | 58 | 1000.2 |
| 20260505004129 | 22 | 95 | 0.0 | 3.2 | 0.00 | 0.00 | 0.00 | 59 | 1000.0 |
| 20260505003626 | 22 | 163 | 6.4 | 6.4 | 0.00 | 0.00 | 0.00 | 58 | 1000.0 |
| 20260505003124 | 22 | 283 | 1.6 | 8.0 | 0.00 | 0.00 | 0.00 | 59 | 999.7 |
| 20260505002620 | 22 | 175 | 0.0 | 8.0 | 0.00 | 0.00 | 0.00 | 57 | 999.6 |
| 20260505002118 | 23 | 202 | 0.0 | 4.8 | 0.00 | 0.00 | 0.00 | 57 | 999.6 |
| 20260505001615 | 23 | 215 | 1.6 | 4.8 | 0.00 | 0.00 | 0.00 | 57 | 999.7 |
| 20260505001113 | 23 | 246 | 3.2 | 6.4 | 0.00 | 0.00 | 0.00 | 55 | 999.5 |
| 20260505000609 | 23 | 14 | 4.8 | 4.8 | 0.00 | 0.00 | 0.00 | 54 | 999.9 |
| 20260505000107 | 23 | 222 | 4.8 | 8.0 | 0.00 | 0.00 | 0.00 | 55 | 1000.1 |
| 20260504235603 | 23 | 157 | 3.2 | 9.7 | 0.00 | 0.00 | 0.00 | 55 | 1000.2 |